^^
Saratoga-Weather Station Historical Data
Daily Summary for July 3, 2020 Units:  Metric    English   Both
Daily Weekly Monthly Yearly Custom
  High: Low: Average:
Temperature: 9.2 °C 4.9 °C 7.4 °C
Dew Point: 8.6 °C 4.6 °C 6.5 °C
Humidity: 98% 88% 94%
Wind Speed: 17.7km/h 0km/h 2.9km/h
Wind Gust: 24.1km/h - -
Wind- - South
Pressure: 1027.8 hPa 1021.7 hPa -
Precipitation: 2.5 mm    
Historical Graphs
 
 
Tabular Data for July 3, 2020
Time Temperature Dew Point Pressure Wind Wind Speed Wind Gust Humidity Rainfall Rate (Hourly) solar
00:02 4.9 °C 4.6 °C 1025.1 hPa ENE 3.2 km/h 3.2 km/h 98% 0.0 mm 0 W/m2
00:07 5 °C 4.7 °C 1025.1 hPa NNE 3.2 km/h 4.8 km/h 98% 0.0 mm 0 W/m2
00:12 5 °C 4.7 °C 1025.1 hPa East 11.1 km/h 11.3 km/h 98% 0.0 mm 0 W/m2
00:17 5.1 °C 4.8 °C 1025.1 hPa ENE 1.4 km/h 4.8 km/h 98% 0.0 mm 0 W/m2
00:22 5.1 °C 4.8 °C 1025.1 hPa North 1.4 km/h 8 km/h 98% 0.0 mm 0 W/m2
00:27 5.1 °C 4.8 °C 1025.1 hPa Calm   17.7 km/h 98% 0.0 mm 0 W/m2
00:32 5.1 °C 4.7 °C 1025.1 hPa Calm   6.4 km/h 97% 0.0 mm 0 W/m2
00:37 5.1 °C 4.7 °C 1025.1 hPa South 3.2 km/h 6.4 km/h 97% 0.0 mm 0 W/m2
00:42 5.1 °C 4.7 °C 1025.1 hPa WNW 4.7 km/h 6.4 km/h 97% 0.0 mm 0 W/m2
00:47 5.1 °C 4.7 °C 1024.7 hPa West 11.1 km/h 12.9 km/h 97% 0.0 mm 0 W/m2
00:52 5.2 °C 4.8 °C 1024.7 hPa WNW 3.2 km/h 6.4 km/h 97% 0.0 mm 0 W/m2
00:57 5.2 °C 4.8 °C 1024.7 hPa SSW 3.2 km/h 11.3 km/h 97% 0.0 mm 0 W/m2
01:02 5.2 °C 4.8 °C 1024.7 hPa WNW 1.4 km/h 8 km/h 97% 0.0 mm 0 W/m2
01:07 5.2 °C 4.8 °C 1024.4 hPa SSW 3.2 km/h 6.4 km/h 97% 0.0 mm 0 W/m2
01:12 5.3 °C 4.9 °C 1024.4 hPa South 1.4 km/h 8 km/h 97% 0.0 mm 0 W/m2
01:17 5.3 °C 4.9 °C 1024.4 hPa NW 3.2 km/h 4.8 km/h 97% 0.0 mm 0 W/m2
01:22 5.3 °C 4.9 °C 1024.4 hPa East 3.2 km/h 3.2 km/h 97% 0.0 mm 0 W/m2
01:27 5.3 °C 4.9 °C 1024.4 hPa WNW 1.4 km/h 4.8 km/h 97% 0.0 mm 0 W/m2
01:32 5.3 °C 4.9 °C 1024.0 hPa WNW 1.4 km/h 6.4 km/h 97% 0.0 mm 0 W/m2
01:37 5.4 °C 5 °C 1024.0 hPa NE 6.4 km/h 6.4 km/h 97% 0.0 mm 0 W/m2
01:43 5.4 °C 5 °C 1024.0 hPa West 11.1 km/h 12.9 km/h 97% 0.0 mm 0 W/m2
01:48 5.4 °C 5 °C 1024.0 hPa West 13 km/h 14.5 km/h 97% 0.0 mm 0 W/m2
01:53 5.5 °C 5.1 °C 1024.0 hPa South 3.2 km/h 4.8 km/h 97% 0.0 mm 0 W/m2
01:58 5.6 °C 5 °C 1024.0 hPa NNW 3.2 km/h 14.5 km/h 96% 0.0 mm 0 W/m2
02:03 5.6 °C 5 °C 1024.0 hPa NE 3.2 km/h 4.8 km/h 96% 0.0 mm 0 W/m2
02:08 5.6 °C 5 °C 1024.0 hPa NE 7.9 km/h 8 km/h 96% 0.0 mm 0 W/m2
02:13 5.7 °C 5.1 °C 1024.0 hPa ENE 3.2 km/h 3.2 km/h 96% 0.0 mm 0 W/m2
02:18 5.7 °C 5.1 °C 1024.0 hPa NNW 1.4 km/h 4.8 km/h 96% 0.0 mm 0 W/m2
02:23 5.7 °C 5.1 °C 1024.0 hPa Calm   8 km/h 96% 0.0 mm 0 W/m2
02:28 5.7 °C 5.1 °C 1024.0 hPa WNW 7.9 km/h 8 km/h 96% 0.0 mm 0 W/m2
02:33 5.7 °C 5.1 °C 1024.0 hPa NW 3.2 km/h 6.4 km/h 96% 0.0 mm 0 W/m2
02:38 5.8 °C 5.2 °C 1023.7 hPa ESE 9.7 km/h 12.9 km/h 96% 0.0 mm 0 W/m2
02:43 5.8 °C 5.2 °C 1024.0 hPa WSW 1.4 km/h 9.7 km/h 96% 0.0 mm 0 W/m2
02:48 5.8 °C 5.2 °C 1024.0 hPa NW 1.4 km/h 12.9 km/h 96% 0.0 mm 0 W/m2
02:53 5.9 °C 5.3 °C 1023.7 hPa East 3.2 km/h 3.2 km/h 96% 0.0 mm 0 W/m2
02:58 5.9 °C 5.3 °C 1023.7 hPa WNW 3.2 km/h 4.8 km/h 96% 0.0 mm 0 W/m2
03:03 6 °C 5.3 °C 1023.7 hPa East 4.7 km/h 9.7 km/h 95% 0.0 mm 0 W/m2
03:08 6 °C 5.3 °C 1023.7 hPa ENE 3.2 km/h 4.8 km/h 95% 0.0 mm 0 W/m2
03:13 6 °C 5.3 °C 1023.4 hPa Calm   6.4 km/h 95% 0.0 mm 0 W/m2
03:18 6 °C 5.3 °C 1023.4 hPa ESE 3.2 km/h 6.4 km/h 95% 0.0 mm 0 W/m2
03:23 6 °C 5.3 °C 1023.4 hPa ENE 3.2 km/h 4.8 km/h 95% 0.0 mm 0 W/m2
03:28 6 °C 5.3 °C 1023.4 hPa ENE 6.4 km/h 6.4 km/h 95% 0.0 mm 0 W/m2
03:33 6.1 °C 5.4 °C 1023.4 hPa East 1.4 km/h 6.4 km/h 95% 0.0 mm 0 W/m2
03:38 6.1 °C 5.4 °C 1023.4 hPa NE 1.4 km/h 3.2 km/h 95% 0.0 mm 0 W/m2
03:43 6.1 °C 5.4 °C 1023.0 hPa East 6.4 km/h 11.3 km/h 95% 0.0 mm 0 W/m2
03:48 6.2 °C 5.5 °C 1023.0 hPa ENE 3.2 km/h 9.7 km/h 95% 0.0 mm 0 W/m2
03:53 6.2 °C 5.5 °C 1023.0 hPa ENE 3.2 km/h 6.4 km/h 95% 0.0 mm 0 W/m2
03:58 6.3 °C 5.6 °C 1023.0 hPa NE 3.2 km/h 4.8 km/h 95% 0.0 mm 0 W/m2
04:03 6.3 °C 5.6 °C 1023.0 hPa East 3.2 km/h 4.8 km/h 95% 0.0 mm 0 W/m2
04:08 6.3 °C 5.4 °C 1023.0 hPa East 3.2 km/h 11.3 km/h 94% 0.0 mm 0 W/m2
04:13 6.3 °C 5.4 °C 1023.0 hPa East 1.4 km/h 6.4 km/h 94% 0.0 mm 0 W/m2
04:18 6.3 °C 5.4 °C 1023.0 hPa WNW 3.2 km/h 11.3 km/h 94% 0.0 mm 0 W/m2
04:23 6.3 °C 5.4 °C 1023.0 hPa ESE 4.7 km/h 9.7 km/h 94% 0.0 mm 0 W/m2
04:28 6.3 °C 5.4 °C 1023.0 hPa East 4.7 km/h 11.3 km/h 94% 0.0 mm 0 W/m2
04:33 6.2 °C 5.3 °C 1022.7 hPa East 3.2 km/h 4.8 km/h 94% 0.0 mm 0 W/m2
04:38 6.2 °C 5.3 °C 1022.7 hPa ENE 7.9 km/h 9.7 km/h 94% 0.0 mm 0 W/m2
04:43 6.1 °C 5.2 °C 1022.7 hPa ENE 6.4 km/h 8 km/h 94% 0.0 mm 0 W/m2
04:48 6.2 °C 5.3 °C 1022.7 hPa East 4.7 km/h 11.3 km/h 94% 0.0 mm 0 W/m2
04:53 6.2 °C 5.3 °C 1022.4 hPa ENE 4.7 km/h 8 km/h 94% 0.0 mm 0 W/m2
04:59 6.3 °C 5.4 °C 1022.4 hPa NNW 1.4 km/h 8 km/h 94% 0.0 mm 0 W/m2
05:04 6.3 °C 5.4 °C 1022.4 hPa NE 9.7 km/h 9.7 km/h 94% 0.0 mm 0 W/m2
05:09 6.4 °C 5.4 °C 1022.7 hPa NW 3.2 km/h 8 km/h 93% 0.0 mm 0 W/m2
05:14 6.6 °C 5.5 °C 1022.7 hPa NNE 4.7 km/h 4.8 km/h 93% 0.0 mm 0 W/m2
05:19 6.7 °C 5.5 °C 1022.7 hPa North 4.7 km/h 8 km/h 92% 0.0 mm 0 W/m2
05:24 6.8 °C 5.6 °C 1022.4 hPa NNE 6.4 km/h 8 km/h 92% 0.0 mm 0 W/m2
05:29 6.8 °C 5.4 °C 1022.4 hPa ENE 7.9 km/h 9.7 km/h 91% 0.0 mm 0 W/m2
05:34 6.8 °C 5.4 °C 1022.4 hPa East 6.4 km/h 6.4 km/h 91% 0.0 mm 0 W/m2
05:39 6.8 °C 5.4 °C 1022.4 hPa ENE 1.4 km/h 6.4 km/h 91% 0.0 mm 0 W/m2
05:44 6.8 °C 5.4 °C 1022.4 hPa ENE 6.4 km/h 11.3 km/h 91% 0.0 mm 0 W/m2
05:49 6.8 °C 5.4 °C 1022.4 hPa ESE 3.2 km/h 9.7 km/h 91% 0.0 mm 0 W/m2
05:55 6.8 °C 5.3 °C 1022.4 hPa ENE 4.7 km/h 6.4 km/h 90% 0.0 mm 0 W/m2
06:00 6.8 °C 5.3 °C 1022.4 hPa East 11.1 km/h 11.3 km/h 90% 0.0 mm 0 W/m2
06:05 6.8 °C 5.3 °C 1022.4 hPa East 1.4 km/h 6.4 km/h 90% 0.0 mm 0 W/m2
06:10 6.7 °C 5.3 °C 1022.4 hPa ENE 4.7 km/h 8 km/h 91% 0.0 mm 0 W/m2
06:15 6.8 °C 5.4 °C 1022.4 hPa ESE 3.2 km/h 6.4 km/h 91% 0.0 mm 0 W/m2
06:20 6.8 °C 5.3 °C 1022.4 hPa ENE 6.4 km/h 6.4 km/h 90% 0.0 mm 0 W/m2
06:25 6.8 °C 5.3 °C 1022.0 hPa ENE 3.2 km/h 9.7 km/h 90% 0.0 mm 0 W/m2
06:30 6.8 °C 5.3 °C 1022.0 hPa NE 4.7 km/h 9.7 km/h 90% 0.0 mm 0 W/m2
06:35 6.9 °C 5.4 °C 1021.7 hPa East 4.7 km/h 11.3 km/h 90% 0.0 mm 0 W/m2
06:40 6.9 °C 5.4 °C 1022.0 hPa ENE 3.2 km/h 14.5 km/h 90% 0.0 mm 0 W/m2
06:45 6.8 °C 5.3 °C 1021.7 hPa East 6.4 km/h 11.3 km/h 90% 0.0 mm 0 W/m2
06:50 6.9 °C 5.4 °C 1022.0 hPa East 4.7 km/h 14.5 km/h 90% 0.0 mm 0 W/m2
06:55 7 °C 5.3 °C 1022.0 hPa NNE 4.7 km/h 8 km/h 89% 0.0 mm 0 W/m2
07:01 7.1 °C 5.4 °C 1022.0 hPa NNW 6.4 km/h 14.5 km/h 89% 0.0 mm 0 W/m2
07:06 7.1 °C 5.4 °C 1022.0 hPa North 13 km/h 12.9 km/h 89% 0.0 mm 0 W/m2
07:11 7.1 °C 5.4 °C 1022.0 hPa NW 6.4 km/h 14.5 km/h 89% 0.0 mm 0 W/m2
07:16 7.1 °C 5.2 °C 1022.0 hPa WNW 7.9 km/h 8 km/h 88% 0.0 mm 0 W/m2
07:21 7.1 °C 5.2 °C 1022.0 hPa WNW 4.7 km/h 14.5 km/h 88% 0.0 mm 0 W/m2
07:26 7.1 °C 5.2 °C 1022.0 hPa SE 1.4 km/h 12.9 km/h 88% 0.0 mm 0 W/m2
07:31 7.1 °C 5.2 °C 1022.0 hPa ENE 4.7 km/h 14.5 km/h 88% 0.0 mm 0 W/m2
07:36 7.1 °C 5.2 °C 1022.0 hPa NNE 4.7 km/h 6.4 km/h 88% 0.0 mm 0 W/m2
07:41 7.1 °C 5.2 °C 1022.4 hPa SE 1.4 km/h 4.8 km/h 88% 0.0 mm 0 W/m2
07:46 7.1 °C 5.2 °C 1022.4 hPa WNW 1.4 km/h 11.3 km/h 88% 0.0 mm 0 W/m2
07:51 7.1 °C 5.2 °C 1022.0 hPa NNE 3.2 km/h 9.7 km/h 88% 0.0 mm 0 W/m2
07:56 7 °C 5.1 °C 1022.0 hPa NE 4.7 km/h 4.8 km/h 88% 0.0 mm 0 W/m2
08:01 7 °C 5.1 °C 1022.4 hPa NE 3.2 km/h 9.7 km/h 88% 0.0 mm 0 W/m2
08:06 6.9 °C 5.1 °C 1022.4 hPa NNW 4.7 km/h 16.1 km/h 88% 0.0 mm 0 W/m2
08:11 6.8 °C 5 °C 1022.4 hPa NE 3.2 km/h 8 km/h 88% 0.0 mm 0 W/m2
08:16 6.8 °C 5 °C 1022.4 hPa NNW 4.7 km/h 11.3 km/h 88% 0.0 mm 0 W/m2
08:21 6.8 °C 5 °C 1022.4 hPa NNW 4.7 km/h 9.7 km/h 88% 0.0 mm 0 W/m2
08:26 6.7 °C 4.9 °C 1022.4 hPa East 3.2 km/h 9.7 km/h 88% 0.0 mm 0 W/m2
08:31 6.7 °C 4.9 °C 1022.4 hPa NNE 1.4 km/h 12.9 km/h 88% 0.0 mm 0 W/m2
08:36 6.7 °C 4.9 °C 1022.4 hPa North 4.7 km/h 6.4 km/h 88% 0.0 mm 0 W/m2
08:42 6.6 °C 4.8 °C 1022.4 hPa NNW 6.4 km/h 17.7 km/h 88% 0.0 mm 0 W/m2
08:47 6.6 °C 4.9 °C 1022.7 hPa NW 6.4 km/h 8 km/h 89% 0.0 mm 0 W/m2
08:52 6.6 °C 4.9 °C 1022.7 hPa NE 4.7 km/h 17.7 km/h 89% 0.0 mm 0 W/m2
08:57 6.6 °C 4.9 °C 1022.4 hPa NNW 6.4 km/h 9.7 km/h 89% 0.0 mm 7 W/m2
09:02 6.6 °C 4.9 °C 1022.7 hPa NW 3.2 km/h 4.8 km/h 89% 0.0 mm 9 W/m2
09:07 6.6 °C 4.9 °C 1022.4 hPa West 4.7 km/h 8 km/h 89% 0.0 mm 14 W/m2
09:12 6.6 °C 4.9 °C 1022.4 hPa NNW 7.9 km/h 12.9 km/h 89% 0.0 mm 14 W/m2
09:17 6.6 °C 4.9 °C 1022.4 hPa NW 3.2 km/h 14.5 km/h 89% 0.0 mm 18 W/m2
09:22 6.6 °C 5.1 °C 1022.4 hPa North 3.2 km/h 4.8 km/h 90% 0.0 mm 23 W/m2
09:27 6.5 °C 5 °C 1022.4 hPa West 9.7 km/h 19.3 km/h 90% 0.0 mm 19 W/m2
09:32 6.6 °C 5.1 °C 1022.4 hPa West 3.2 km/h 6.4 km/h 90% 0.0 mm 14 W/m2
09:37 6.6 °C 5.1 °C 1022.4 hPa WNW 13 km/h 19.3 km/h 90% 0.0 mm 9 W/m2
09:42 6.6 °C 5.2 °C 1022.4 hPa North 4.7 km/h 6.4 km/h 91% 0.0 mm 11 W/m2
09:47 6.6 °C 5.2 °C 1022.4 hPa NNW 6.4 km/h 6.4 km/h 91% 0.0 mm 11 W/m2
09:52 6.6 °C 5.2 °C 1022.4 hPa Calm   6.4 km/h 91% 0.0 mm 5 W/m2
09:57 6.6 °C 5.2 °C 1022.4 hPa WSW 6.4 km/h 12.9 km/h 91% 0.0 mm 14 W/m2
10:02 6.6 °C 5.2 °C 1022.4 hPa NW 3.2 km/h 8 km/h 91% 0.0 mm 21 W/m2
10:07 6.6 °C 5.2 °C 1022.4 hPa SW 1.4 km/h 9.7 km/h 91% 0.0 mm 19 W/m2
10:12 6.6 °C 5.4 °C 1022.4 hPa NE 3.2 km/h 9.7 km/h 92% 0.0 mm 14 W/m2
10:17 6.6 °C 5.4 °C 1022.4 hPa WNW 1.4 km/h 12.9 km/h 92% 0.0 mm 7 W/m2
10:22 6.6 °C 5.4 °C 1022.4 hPa WNW 4.7 km/h 6.4 km/h 92% 0.0 mm 14 W/m2
10:27 6.6 °C 5.4 °C 1022.4 hPa NW 3.2 km/h 12.9 km/h 92% 0.0 mm 16 W/m2
10:32 6.6 °C 5.5 °C 1022.4 hPa WNW 3.2 km/h 8 km/h 93% 0.0 mm 21 W/m2
10:37 6.6 °C 5.5 °C 1022.4 hPa SSW 4.7 km/h 8 km/h 93% 0.0 mm 25 W/m2
10:42 6.6 °C 5.5 °C 1022.4 hPa ESE 1.4 km/h 6.4 km/h 93% 0.0 mm 25 W/m2
10:47 6.6 °C 5.5 °C 1022.4 hPa NNE 3.2 km/h 4.8 km/h 93% 0.2 mm 16 W/m2
10:52 6.6 °C 5.7 °C 1022.4 hPa NNW 1.4 km/h 6.4 km/h 94% 0.2 mm 30 W/m2
10:57 6.6 °C 5.7 °C 1022.4 hPa SW 3.2 km/h 8 km/h 94% 0.2 mm 44 W/m2
11:02 6.7 °C 5.8 °C 1022.4 hPa WNW 6.4 km/h 20.9 km/h 94% 0.2 mm 51 W/m2
11:07 6.7 °C 5.8 °C 1022.4 hPa WNW 4.7 km/h 9.7 km/h 94% 0.2 mm 40 W/m2
11:12 6.8 °C 6.1 °C 1022.4 hPa West 3.2 km/h 19.3 km/h 95% 0.5 mm 30 W/m2
11:17 6.8 °C 6.1 °C 1022.4 hPa West 3.2 km/h 16.1 km/h 95% 0.5 mm 26 W/m2
11:22 6.9 °C 6.2 °C 1022.4 hPa WNW 13 km/h 16.1 km/h 95% 0.5 mm 26 W/m2
11:27 6.9 °C 6.2 °C 1022.4 hPa NW 4.7 km/h 16.1 km/h 95% 0.5 mm 26 W/m2
11:33 7 °C 6.3 °C 1022.4 hPa NNW 7.9 km/h 16.1 km/h 95% 0.5 mm 26 W/m2
11:38 7 °C 6.3 °C 1022.4 hPa South 6.4 km/h 9.7 km/h 95% 0.5 mm 23 W/m2
11:43 7.1 °C 6.4 °C 1022.4 hPa WNW 9.7 km/h 9.7 km/h 95% 0.5 mm 33 W/m2
11:48 7.1 °C 6.4 °C 1022.4 hPa Calm   1.6 km/h 95% 0.2 mm 21 W/m2
11:53 7.1 °C 6.4 °C 1022.4 hPa Calm   1.6 km/h 95% 0.2 mm 12 W/m2
11:58 7.1 °C 6.4 °C 1022.4 hPa Calm     95% 0.5 mm 12 W/m2
12:03 7.2 °C 6.5 °C 1022.0 hPa WSW 7.9 km/h 8 km/h 95% 0.5 mm 26 W/m2
12:08 7.2 °C 6.5 °C 1022.4 hPa Calm   4.8 km/h 95% 0.5 mm 35 W/m2
12:13 7.2 °C 6.5 °C 1022.0 hPa Calm     95% 0.2 mm 35 W/m2
12:18 7.3 °C 6.6 °C 1022.0 hPa Calm   6.4 km/h 95% 0.2 mm 40 W/m2
12:23 7.3 °C 6.6 °C 1022.0 hPa Calm     95% 0.2 mm 30 W/m2
12:28 7.4 °C 6.7 °C 1022.0 hPa Calm   1.6 km/h 95% 0.2 mm 35 W/m2
12:33 7.5 °C 6.9 °C 1022.0 hPa West 1.4 km/h 3.2 km/h 96% 0.2 mm 35 W/m2
12:38 7.6 °C 7 °C 1022.0 hPa WSW 14.3 km/h 14.5 km/h 96% 0.2 mm 39 W/m2
12:43 7.6 °C 7 °C 1021.7 hPa Calm   3.2 km/h 96% 0.2 mm 44 W/m2
12:48 7.7 °C 6.9 °C 1021.7 hPa Calm   1.6 km/h 95% 0.2 mm 39 W/m2
12:53 7.7 °C 6.9 °C 1021.7 hPa WSW 4.7 km/h 14.5 km/h 95% 0.2 mm 30 W/m2
12:58 7.7 °C 6.9 °C 1021.7 hPa SW 17.7 km/h 20.9 km/h 95% 0.0 mm 47 W/m2
13:03 7.7 °C 7.1 °C 1021.7 hPa West 1.4 km/h 9.7 km/h 96% 0.2 mm 42 W/m2
13:08 7.8 °C 7.2 °C 1021.7 hPa Calm   8 km/h 96% 0.2 mm 40 W/m2
13:13 7.8 °C 7 °C 1021.7 hPa Calm   9.7 km/h 95% 0.2 mm 19 W/m2
13:18 7.8 °C 7 °C 1021.7 hPa NW 7.9 km/h 8 km/h 95% 0.2 mm 28 W/m2
13:23 7.8 °C 7 °C 1021.7 hPa WSW 6.4 km/h 22.5 km/h 95% 0.2 mm 37 W/m2
13:28 7.8 °C 7 °C 1021.7 hPa Calm     95% 0.2 mm 33 W/m2
13:33 7.9 °C 7.1 °C 1021.7 hPa South 9.7 km/h 14.5 km/h 95% 0.2 mm 35 W/m2
13:38 7.9 °C 7.1 °C 1021.7 hPa Calm   1.6 km/h 95% 0.2 mm 42 W/m2
13:43 7.9 °C 7.1 °C 1021.7 hPa Calm   12.9 km/h 95% 0.2 mm 40 W/m2
13:48 8 °C 7.2 °C 1022.0 hPa Calm   14.5 km/h 95% 0.2 mm 33 W/m2
13:53 8 °C 7.2 °C 1022.0 hPa Calm   6.4 km/h 95% 0.2 mm 33 W/m2
13:58 8.1 °C 7.3 °C 1022.0 hPa Calm   8 km/h 95% 0.2 mm 33 W/m2
14:03 8.1 °C 7.3 °C 1022.0 hPa Calm   1.6 km/h 95% 0.0 mm 26 W/m2
14:08 8.1 °C 7.3 °C 1022.0 hPa Calm   16.1 km/h 95% 0.0 mm 26 W/m2
14:13 8.2 °C 7.4 °C 1022.0 hPa South 13 km/h 14.5 km/h 95% 0.0 mm 32 W/m2
14:18 8.2 °C 7.4 °C 1022.4 hPa SW 6.4 km/h 12.9 km/h 95% 0.0 mm 30 W/m2
14:23 8.3 °C 7.5 °C 1022.0 hPa Calm     95% 0.0 mm 18 W/m2
14:28 8.3 °C 7.5 °C 1022.0 hPa Calm   3.2 km/h 95% 0.0 mm 12 W/m2
14:33 8.3 °C 7.5 °C 1022.0 hPa Calm   4.8 km/h 95% 0.0 mm 16 W/m2
14:38 8.4 °C 7.5 °C 1022.0 hPa WNW 14.3 km/h 16.1 km/h 94% 0.0 mm 19 W/m2
14:43 8.4 °C 7.5 °C 1022.4 hPa Calm   22.5 km/h 94% 0.0 mm 19 W/m2
14:48 8.5 °C 7.6 °C 1022.4 hPa Calm   1.6 km/h 94% 0.0 mm 18 W/m2
14:53 8.5 °C 7.6 °C 1022.4 hPa NW 4.7 km/h 22.5 km/h 94% 0.0 mm 21 W/m2
14:58 8.5 °C 7.6 °C 1022.4 hPa WSW 6.4 km/h 11.3 km/h 94% 0.0 mm 16 W/m2
15:03 8.5 °C 7.6 °C 1022.4 hPa Calm   11.3 km/h 94% 0.0 mm 19 W/m2
15:08 8.6 °C 7.7 °C 1022.0 hPa Calm   1.6 km/h 94% 0.0 mm 46 W/m2
15:13 8.6 °C 7.7 °C 1022.0 hPa Calm   8 km/h 94% 0.0 mm 46 W/m2
15:18 8.6 °C 7.7 °C 1022.4 hPa Calm   9.7 km/h 94% 0.0 mm 35 W/m2
15:23 8.6 °C 7.7 °C 1022.4 hPa Calm   1.6 km/h 94% 0.0 mm 30 W/m2
15:28 8.6 °C 7.7 °C 1022.4 hPa Calm   12.9 km/h 94% 0.0 mm 28 W/m2
15:33 8.7 °C 7.8 °C 1022.4 hPa Calm   1.6 km/h 94% 0.0 mm 26 W/m2
15:38 8.7 °C 7.8 °C 1022.4 hPa Calm   12.9 km/h 94% 0.0 mm 23 W/m2
15:43 8.7 °C 7.8 °C 1022.4 hPa Calm     94% 0.0 mm 18 W/m2
15:48 8.7 °C 7.8 °C 1022.4 hPa Calm   11.3 km/h 94% 0.0 mm 14 W/m2
15:53 8.7 °C 7.8 °C 1022.4 hPa Calm   3.2 km/h 94% 0.0 mm 23 W/m2
15:58 8.6 °C 7.7 °C 1022.4 hPa Calm   9.7 km/h 94% 0.0 mm 16 W/m2
16:03 8.6 °C 7.7 °C 1022.4 hPa Calm   1.6 km/h 94% 0.0 mm 16 W/m2
16:08 8.6 °C 7.7 °C 1022.7 hPa Calm   8 km/h 94% 0.0 mm 12 W/m2
16:13 8.6 °C 7.7 °C 1022.7 hPa Calm     94% 0.0 mm 12 W/m2
16:18 8.6 °C 7.7 °C 1022.7 hPa Calm     94% 0.0 mm 9 W/m2
16:23 8.6 °C 7.7 °C 1022.7 hPa WSW 4.7 km/h 12.9 km/h 94% 0.0 mm 7 W/m2
16:28 8.7 °C 7.8 °C 1022.7 hPa Calm     94% 0.0 mm 5 W/m2
16:33 8.7 °C 7.8 °C 1022.7 hPa Calm   16.1 km/h 94% 0.0 mm 5 W/m2
16:38 8.7 °C 7.8 °C 1023.0 hPa WSW 3.2 km/h 3.2 km/h 94% 0.0 mm 5 W/m2
16:43 8.7 °C 7.8 °C 1023.0 hPa Calm   11.3 km/h 94% 0.0 mm 0 W/m2
16:48 8.7 °C 7.8 °C 1023.0 hPa Calm   1.6 km/h 94% 0.0 mm 0 W/m2
16:53 8.6 °C 7.8 °C 1023.0 hPa Calm   19.3 km/h 95% 0.2 mm 0 W/m2
16:58 8.7 °C 7.9 °C 1023.0 hPa Calm     95% 0.2 mm 0 W/m2
17:03 8.7 °C 7.8 °C 1023.0 hPa Calm   19.3 km/h 94% 0.2 mm 0 W/m2
17:08 8.7 °C 7.9 °C 1023.0 hPa Calm     95% 0.2 mm 0 W/m2
17:14 8.7 °C 7.9 °C 1023.4 hPa Calm     95% 0.2 mm 0 W/m2
17:19 8.7 °C 7.9 °C 1023.0 hPa Calm   14.5 km/h 95% 0.2 mm 0 W/m2
17:24 8.7 °C 7.9 °C 1023.0 hPa Calm     95% 0.2 mm 0 W/m2
17:29 8.7 °C 7.9 °C 1023.4 hPa Calm   3.2 km/h 95% 0.2 mm 0 W/m2
17:34 8.7 °C 7.9 °C 1023.4 hPa Calm   8 km/h 95% 0.2 mm 0 W/m2
17:39 8.7 °C 7.9 °C 1023.4 hPa Calm     95% 0.2 mm 0 W/m2
17:44 8.7 °C 7.9 °C 1023.4 hPa Calm   1.6 km/h 95% 0.2 mm 0 W/m2
17:49 8.7 °C 7.9 °C 1023.4 hPa Calm     95% 0.2 mm 0 W/m2
17:54 8.8 °C 8 °C 1023.4 hPa Calm     95% 0.2 mm 0 W/m2
17:59 8.8 °C 8 °C 1023.4 hPa Calm     95% 0.2 mm 0 W/m2
18:04 8.8 °C 8 °C 1023.4 hPa Calm   8 km/h 95% 0.2 mm 0 W/m2
18:09 8.8 °C 8 °C 1023.4 hPa Calm   12.9 km/h 95% 0.2 mm 0 W/m2
18:14 8.8 °C 8 °C 1023.4 hPa Calm   1.6 km/h 95% 0.2 mm 0 W/m2
18:19 8.8 °C 8 °C 1023.4 hPa Calm   9.7 km/h 95% 0.2 mm 0 W/m2
18:24 8.8 °C 8 °C 1023.7 hPa Calm   3.2 km/h 95% 0.2 mm 0 W/m2
18:29 8.8 °C 8 °C 1023.7 hPa Calm     95% 0.2 mm 0 W/m2
18:35 8.8 °C 8 °C 1023.7 hPa Calm   4.8 km/h 95% 0.2 mm 0 W/m2
18:40 8.8 °C 8 °C 1023.7 hPa Calm     95% 0.2 mm 0 W/m2
18:45 8.8 °C 8 °C 1023.7 hPa Calm     95% 0.2 mm 0 W/m2
18:50 8.8 °C 8 °C 1024.0 hPa Calm   9.7 km/h 95% 0.2 mm 0 W/m2
18:55 8.8 °C 8 °C 1024.0 hPa Calm   1.6 km/h 95% 0.0 mm 0 W/m2
19:00 8.8 °C 8 °C 1024.0 hPa Calm     95% 0.0 mm 0 W/m2
19:05 8.8 °C 8 °C 1024.0 hPa Calm     95% 0.0 mm 0 W/m2
19:10 8.9 °C 8.1 °C 1024.0 hPa Calm     95% 0.0 mm 0 W/m2
19:15 8.9 °C 8.1 °C 1024.0 hPa Calm   1.6 km/h 95% 0.0 mm 0 W/m2
19:20 8.9 °C 8.1 °C 1024.0 hPa Calm     95% 0.2 mm 0 W/m2
19:25 8.9 °C 8.1 °C 1024.0 hPa Calm   3.2 km/h 95% 0.2 mm 0 W/m2
19:30 8.9 °C 8.1 °C 1024.4 hPa Calm     95% 0.2 mm 0 W/m2
19:35 8.9 °C 8.1 °C 1024.0 hPa Calm     95% 0.5 mm 0 W/m2
19:40 8.9 °C 8.1 °C 1024.4 hPa SSW 3.2 km/h 14.5 km/h 95% 0.5 mm 0 W/m2
19:45 9 °C 8.2 °C 1024.4 hPa Calm     95% 0.5 mm 0 W/m2
19:50 9 °C 8.2 °C 1024.4 hPa Calm   14.5 km/h 95% 0.5 mm 0 W/m2
19:55 9 °C 8.2 °C 1024.4 hPa Calm   1.6 km/h 95% 0.5 mm 0 W/m2
20:00 9 °C 8.2 °C 1024.4 hPa West 4.7 km/h 9.7 km/h 95% 0.5 mm 0 W/m2
20:05 9 °C 8.2 °C 1024.4 hPa Calm     95% 0.5 mm 0 W/m2
20:10 9 °C 8.2 °C 1024.4 hPa Calm   6.4 km/h 95% 0.5 mm 0 W/m2
20:15 9 °C 8.4 °C 1024.4 hPa Calm   12.9 km/h 96% 0.5 mm 0 W/m2
20:20 9 °C 8.4 °C 1024.4 hPa Calm     96% 0.5 mm 0 W/m2
20:25 9 °C 8.4 °C 1024.4 hPa West 12.9 km/h 12.9 km/h 96% 0.5 mm 0 W/m2
20:30 9 °C 8.4 °C 1024.7 hPa Calm     96% 0.5 mm 0 W/m2
20:35 9 °C 8.4 °C 1024.7 hPa Calm   3.2 km/h 96% 0.2 mm 0 W/m2
20:40 9.1 °C 8.5 °C 1024.7 hPa Calm   12.9 km/h 96% 0.2 mm 0 W/m2
20:45 9.1 °C 8.5 °C 1024.7 hPa Calm   6.4 km/h 96% 0.5 mm 0 W/m2
20:50 9.1 °C 8.5 °C 1024.7 hPa WNW 11.1 km/h 14.5 km/h 96% 0.5 mm 0 W/m2
20:55 9.1 °C 8.5 °C 1024.7 hPa Calm   4.8 km/h 96% 0.5 mm 0 W/m2
21:00 9.1 °C 8.5 °C 1024.7 hPa Calm     96% 0.5 mm 0 W/m2
21:05 9.1 °C 8.5 °C 1024.7 hPa Calm   3.2 km/h 96% 0.5 mm 0 W/m2
21:10 9.1 °C 8.5 °C 1025.1 hPa Calm   4.8 km/h 96% 0.2 mm 0 W/m2
21:15 9.1 °C 8.5 °C 1025.1 hPa Calm   4.8 km/h 96% 0.2 mm 0 W/m2
21:20 9.2 °C 8.6 °C 1025.1 hPa West 11.1 km/h 16.1 km/h 96% 0.5 mm 0 W/m2
21:25 9.2 °C 8.6 °C 1025.1 hPa WNW 3.2 km/h 9.7 km/h 96% 0.5 mm 0 W/m2
21:30 9.2 °C 8.6 °C 1025.1 hPa Calm   14.5 km/h 96% 0.5 mm 0 W/m2
21:35 9.2 °C 8.6 °C 1025.4 hPa Calm   11.3 km/h 96% 0.5 mm 0 W/m2
21:40 9.2 °C 8.6 °C 1025.4 hPa Calm   14.5 km/h 96% 0.5 mm 0 W/m2
21:45 9.2 °C 8.6 °C 1025.4 hPa Calm   20.9 km/h 96% 0.2 mm 0 W/m2
21:50 9.2 °C 8.6 °C 1025.4 hPa Calm   4.8 km/h 96% 0.2 mm 0 W/m2
21:55 9.2 °C 8.6 °C 1025.7 hPa Calm   1.6 km/h 96% 0.2 mm 0 W/m2
22:01 9.2 °C 8.6 °C 1025.7 hPa Calm   4.8 km/h 96% 0.2 mm 0 W/m2
22:06 9.2 °C 8.6 °C 1025.7 hPa Calm   11.3 km/h 96% 0.5 mm 0 W/m2
22:11 9.1 °C 8.5 °C 1025.7 hPa West 3.2 km/h 3.2 km/h 96% 0.5 mm 0 W/m2
22:16 9.1 °C 8.5 °C 1026.1 hPa West 6.4 km/h 9.7 km/h 96% 0.5 mm 0 W/m2
22:21 8.9 °C 8.3 °C 1026.1 hPa West 3.2 km/h 3.2 km/h 96% 0.2 mm 0 W/m2
22:26 8.9 °C 8.1 °C 1026.1 hPa WNW 6.4 km/h 14.5 km/h 95% 0.5 mm 0 W/m2
22:31 8.9 °C 8.1 °C 1026.1 hPa Calm   12.9 km/h 95% 0.5 mm 0 W/m2
22:36 8.9 °C 8.1 °C 1026.4 hPa West 1.4 km/h 14.5 km/h 95% 0.5 mm 0 W/m2
22:41 8.9 °C 8.1 °C 1026.4 hPa Calm     95% 0.5 mm 0 W/m2
22:46 8.9 °C 8.1 °C 1026.8 hPa WNW 4.7 km/h 4.8 km/h 95% 0.5 mm 0 W/m2
22:51 8.9 °C 8.1 °C 1026.8 hPa WNW 1.4 km/h 14.5 km/h 95% 0.5 mm 0 W/m2
22:56 8.8 °C 7.9 °C 1026.8 hPa Calm     94% 0.5 mm 0 W/m2
23:01 8.7 °C 7.8 °C 1027.1 hPa Calm   14.5 km/h 94% 0.5 mm 0 W/m2
23:06 8.6 °C 7.5 °C 1027.1 hPa Calm   14.5 km/h 93% 0.2 mm 0 W/m2
23:11 8.3 °C 7.2 °C 1027.4 hPa NNW 17.7 km/h 24.1 km/h 93% 0.2 mm 0 W/m2
23:16 8.1 °C 6.9 °C 1027.4 hPa Calm   11.3 km/h 92% 0.2 mm 0 W/m2
23:21 7.9 °C 6.7 °C 1027.4 hPa Calm     92% 0.2 mm 0 W/m2
23:26 7.9 °C 6.7 °C 1027.4 hPa Calm     92% 0.0 mm 0 W/m2
23:31 7.8 °C 6.6 °C 1027.4 hPa Calm     92% 0.0 mm 0 W/m2
23:36 7.7 °C 6.5 °C 1027.4 hPa Calm   6.4 km/h 92% 0.0 mm 0 W/m2
23:41 7.6 °C 6.4 °C 1027.4 hPa Calm   6.4 km/h 92% 0.0 mm 0 W/m2
23:46 7.4 °C 6 °C 1027.4 hPa West 1.4 km/h 4.8 km/h 91% 0.0 mm 0 W/m2
23:51 7.4 °C 6 °C 1027.8 hPa Calm     91% 0.0 mm 0 W/m2
23:56 7.3 °C 5.9 °C 1027.8 hPa Calm     91% 0.0 mm 0 W/m2
Juneau County Weather
Compliments of Weather Underground - 4 mb